sensor_id;sensor_type;location;lat;lon;timestamp;P1;durP1;ratioP1;P2;durP2;ratioP2
52948;SDS011;38812;50.942;3.644;2023-07-29T00:00:36;2.70;;;1.67;;
52948;SDS011;38812;50.942;3.644;2023-07-29T00:03:02;2.78;;;1.60;;
52948;SDS011;38812;50.942;3.644;2023-07-29T00:05:27;3.33;;;1.40;;
52948;SDS011;38812;50.942;3.644;2023-07-29T00:07:52;2.35;;;1.60;;
52948;SDS011;38812;50.942;3.644;2023-07-29T00:10:18;4.43;;;1.63;;
52948;SDS011;38812;50.942;3.644;2023-07-29T00:12:43;2.10;;;1.40;;
52948;SDS011;38812;50.942;3.644;2023-07-29T00:15:09;4.97;;;1.67;;
52948;SDS011;38812;50.942;3.644;2023-07-29T00:17:34;4.57;;;2.05;;
52948;SDS011;38812;50.942;3.644;2023-07-29T00:20:00;4.22;;;2.00;;
52948;SDS011;38812;50.942;3.644;2023-07-29T00:22:25;3.22;;;2.03;;
52948;SDS011;38812;50.942;3.644;2023-07-29T00:24:51;3.03;;;2.00;;
52948;SDS011;38812;50.942;3.644;2023-07-29T00:27:19;4.15;;;1.90;;
52948;SDS011;38812;50.942;3.644;2023-07-29T00:29:45;3.42;;;2.03;;
52948;SDS011;38812;50.942;3.644;2023-07-29T00:32:10;3.33;;;1.90;;
52948;SDS011;38812;50.942;3.644;2023-07-29T00:34:36;4.40;;;1.92;;
52948;SDS011;38812;50.942;3.644;2023-07-29T00:37:01;3.92;;;2.17;;
52948;SDS011;38812;50.942;3.644;2023-07-29T00:39:27;4.65;;;2.88;;
52948;SDS011;38812;50.942;3.644;2023-07-29T00:41:52;4.50;;;2.53;;
52948;SDS011;38812;50.942;3.644;2023-07-29T00:44:17;7.38;;;2.33;;
52948;SDS011;38812;50.942;3.644;2023-07-29T00:46:43;4.05;;;2.67;;
52948;SDS011;38812;50.942;3.644;2023-07-29T00:49:11;3.95;;;2.63;;
52948;SDS011;38812;50.942;3.644;2023-07-29T00:51:36;4.93;;;2.72;;
52948;SDS011;38812;50.942;3.644;2023-07-29T00:54:02;4.85;;;2.28;;
52948;SDS011;38812;50.942;3.644;2023-07-29T00:56:27;5.07;;;2.80;;
52948;SDS011;38812;50.942;3.644;2023-07-29T00:58:53;5.05;;;2.83;;
52948;SDS011;38812;50.942;3.644;2023-07-29T01:01:24;3.97;;;2.30;;
52948;SDS011;38812;50.942;3.644;2023-07-29T01:03:49;6.70;;;1.85;;
52948;SDS011;38812;50.942;3.644;2023-07-29T01:08:59;5.30;;;2.83;;
52948;SDS011;38812;50.942;3.644;2023-07-29T01:16:34;6.40;;;1.85;;
52948;SDS011;38812;50.942;3.644;2023-07-29T01:19:06;7.57;;;4.28;;
52948;SDS011;38812;50.942;3.644;2023-07-29T01:21:32;6.13;;;2.58;;
52948;SDS011;38812;50.942;3.644;2023-07-29T01:24:00;5.22;;;2.35;;
52948;SDS011;38812;50.942;3.644;2023-07-29T01:26:26;4.53;;;2.35;;
52948;SDS011;38812;50.942;3.644;2023-07-29T01:28:53;5.55;;;2.10;;
52948;SDS011;38812;50.942;3.644;2023-07-29T01:34:01;6.85;;;2.22;;
52948;SDS011;38812;50.942;3.644;2023-07-29T01:36:34;3.00;;;2.40;;
52948;SDS011;38812;50.942;3.644;2023-07-29T01:39:04;3.08;;;2.25;;
52948;SDS011;38812;50.942;3.644;2023-07-29T01:41:30;5.45;;;3.03;;
52948;SDS011;38812;50.942;3.644;2023-07-29T01:43:56;3.50;;;2.15;;
52948;SDS011;38812;50.942;3.644;2023-07-29T01:46:22;4.25;;;2.30;;
52948;SDS011;38812;50.942;3.644;2023-07-29T01:48:47;3.22;;;2.58;;
52948;SDS011;38812;50.942;3.644;2023-07-29T01:51:13;4.25;;;2.50;;
52948;SDS011;38812;50.942;3.644;2023-07-29T01:53:39;4.70;;;2.60;;
52948;SDS011;38812;50.942;3.644;2023-07-29T01:56:04;6.78;;;2.35;;
52948;SDS011;38812;50.942;3.644;2023-07-29T01:58:29;13.73;;;2.42;;
52948;SDS011;38812;50.942;3.644;2023-07-29T02:00:55;4.75;;;2.88;;
52948;SDS011;38812;50.942;3.644;2023-07-29T02:03:20;10.43;;;2.67;;
52948;SDS011;38812;50.942;3.644;2023-07-29T02:05:45;7.78;;;2.42;;
52948;SDS011;38812;50.942;3.644;2023-07-29T02:08:11;5.68;;;2.30;;
52948;SDS011;38812;50.942;3.644;2023-07-29T02:10:36;3.30;;;2.42;;
52948;SDS011;38812;50.942;3.644;2023-07-29T02:13:02;3.05;;;2.60;;
52948;SDS011;38812;50.942;3.644;2023-07-29T02:15:28;5.38;;;2.45;;
52948;SDS011;38812;50.942;3.644;2023-07-29T02:17:53;4.03;;;2.30;;
52948;SDS011;38812;50.942;3.644;2023-07-29T02:20:19;3.28;;;1.70;;
52948;SDS011;38812;50.942;3.644;2023-07-29T02:22:45;5.47;;;2.15;;
52948;SDS011;38812;50.942;3.644;2023-07-29T02:25:11;4.55;;;2.13;;
52948;SDS011;38812;50.942;3.644;2023-07-29T02:27:36;2.47;;;1.85;;
52948;SDS011;38812;50.942;3.644;2023-07-29T02:30:02;2.75;;;2.00;;
52948;SDS011;38812;50.942;3.644;2023-07-29T02:32:28;4.07;;;1.80;;
52948;SDS011;38812;50.942;3.644;2023-07-29T02:34:53;3.33;;;2.40;;
52948;SDS011;38812;50.942;3.644;2023-07-29T02:37:18;5.10;;;2.50;;
52948;SDS011;38812;50.942;3.644;2023-07-29T02:39:44;2.67;;;2.25;;
52948;SDS011;38812;50.942;3.644;2023-07-29T02:42:09;3.33;;;2.03;;
52948;SDS011;38812;50.942;3.644;2023-07-29T02:44:35;3.88;;;2.80;;
52948;SDS011;38812;50.942;3.644;2023-07-29T02:47:00;6.47;;;2.30;;
52948;SDS011;38812;50.942;3.644;2023-07-29T02:49:26;5.57;;;2.78;;
52948;SDS011;38812;50.942;3.644;2023-07-29T02:51:51;5.60;;;2.15;;
52948;SDS011;38812;50.942;3.644;2023-07-29T02:54:16;4.05;;;1.98;;
52948;SDS011;38812;50.942;3.644;2023-07-29T02:56:42;4.05;;;2.45;;
52948;SDS011;38812;50.942;3.644;2023-07-29T02:59:07;3.78;;;2.88;;
52948;SDS011;38812;50.942;3.644;2023-07-29T03:01:33;2.80;;;2.40;;
52948;SDS011;38812;50.942;3.644;2023-07-29T03:03:59;3.65;;;2.63;;
52948;SDS011;38812;50.942;3.644;2023-07-29T03:06:24;6.10;;;2.50;;
52948;SDS011;38812;50.942;3.644;2023-07-29T03:08:50;3.88;;;3.03;;
52948;SDS011;38812;50.942;3.644;2023-07-29T03:11:15;7.30;;;3.17;;
52948;SDS011;38812;50.942;3.644;2023-07-29T03:13:41;6.13;;;2.70;;
52948;SDS011;38812;50.942;3.644;2023-07-29T03:16:07;3.65;;;2.50;;
52948;SDS011;38812;50.942;3.644;2023-07-29T03:18:34;5.80;;;2.83;;
52948;SDS011;38812;50.942;3.644;2023-07-29T03:20:59;7.85;;;2.55;;
52948;SDS011;38812;50.942;3.644;2023-07-29T03:23:25;4.22;;;2.72;;
52948;SDS011;38812;50.942;3.644;2023-07-29T03:25:51;4.70;;;2.60;;
52948;SDS011;38812;50.942;3.644;2023-07-29T03:28:18;4.55;;;2.55;;
52948;SDS011;38812;50.942;3.644;2023-07-29T03:30:43;5.40;;;2.58;;
52948;SDS011;38812;50.942;3.644;2023-07-29T03:33:09;3.75;;;2.58;;
52948;SDS011;38812;50.942;3.644;2023-07-29T03:35:34;4.47;;;2.47;;
52948;SDS011;38812;50.942;3.644;2023-07-29T03:37:59;4.13;;;2.58;;
52948;SDS011;38812;50.942;3.644;2023-07-29T03:40:25;6.97;;;2.95;;
52948;SDS011;38812;50.942;3.644;2023-07-29T03:42:50;3.85;;;2.33;;
52948;SDS011;38812;50.942;3.644;2023-07-29T03:45:16;3.00;;;2.45;;
52948;SDS011;38812;50.942;3.644;2023-07-29T03:47:41;5.47;;;2.63;;
52948;SDS011;38812;50.942;3.644;2023-07-29T03:50:06;3.47;;;2.25;;
52948;SDS011;38812;50.942;3.644;2023-07-29T03:52:33;3.92;;;2.63;;
52948;SDS011;38812;50.942;3.644;2023-07-29T03:54:58;5.25;;;2.38;;
52948;SDS011;38812;50.942;3.644;2023-07-29T03:57:23;5.13;;;2.50;;
52948;SDS011;38812;50.942;3.644;2023-07-29T03:59:49;3.80;;;2.10;;
52948;SDS011;38812;50.942;3.644;2023-07-29T04:02:14;3.15;;;2.20;;
52948;SDS011;38812;50.942;3.644;2023-07-29T04:04:40;4.85;;;2.25;;
52948;SDS011;38812;50.942;3.644;2023-07-29T04:07:07;3.15;;;2.42;;
52948;SDS011;38812;50.942;3.644;2023-07-29T04:09:34;5.35;;;2.10;;
52948;SDS011;38812;50.942;3.644;2023-07-29T04:11:59;4.63;;;2.67;;
52948;SDS011;38812;50.942;3.644;2023-07-29T04:14:25;6.03;;;2.75;;
52948;SDS011;38812;50.942;3.644;2023-07-29T04:16:50;2.67;;;1.90;;
52948;SDS011;38812;50.942;3.644;2023-07-29T04:19:16;3.47;;;2.15;;
52948;SDS011;38812;50.942;3.644;2023-07-29T04:21:41;2.42;;;2.05;;
52948;SDS011;38812;50.942;3.644;2023-07-29T04:24:06;2.70;;;2.00;;
52948;SDS011;38812;50.942;3.644;2023-07-29T04:26:32;3.22;;;2.05;;
52948;SDS011;38812;50.942;3.644;2023-07-29T04:28:57;2.40;;;1.98;;
52948;SDS011;38812;50.942;3.644;2023-07-29T04:31:23;4.22;;;1.98;;
52948;SDS011;38812;50.942;3.644;2023-07-29T04:33:48;3.75;;;2.13;;
52948;SDS011;38812;50.942;3.644;2023-07-29T04:36:14;5.00;;;1.83;;
52948;SDS011;38812;50.942;3.644;2023-07-29T04:38:39;2.75;;;2.40;;
52948;SDS011;38812;50.942;3.644;2023-07-29T04:41:05;2.45;;;1.65;;
52948;SDS011;38812;50.942;3.644;2023-07-29T04:43:32;5.50;;;2.80;;
52948;SDS011;38812;50.942;3.644;2023-07-29T04:45:57;3.45;;;1.90;;
52948;SDS011;38812;50.942;3.644;2023-07-29T04:48:23;4.63;;;2.28;;
52948;SDS011;38812;50.942;3.644;2023-07-29T04:50:48;2.85;;;1.63;;
52948;SDS011;38812;50.942;3.644;2023-07-29T04:53:14;7.88;;;2.05;;
52948;SDS011;38812;50.942;3.644;2023-07-29T04:55:41;2.33;;;1.63;;
52948;SDS011;38812;50.942;3.644;2023-07-29T04:58:07;3.88;;;1.90;;
52948;SDS011;38812;50.942;3.644;2023-07-29T05:00:33;5.63;;;2.10;;
52948;SDS011;38812;50.942;3.644;2023-07-29T05:02:59;3.13;;;2.13;;
52948;SDS011;38812;50.942;3.644;2023-07-29T05:05:24;4.13;;;2.25;;
52948;SDS011;38812;50.942;3.644;2023-07-29T05:07:49;2.22;;;1.95;;
52948;SDS011;38812;50.942;3.644;2023-07-29T05:10:15;3.17;;;1.75;;
52948;SDS011;38812;50.942;3.644;2023-07-29T05:12:40;6.55;;;1.95;;
52948;SDS011;38812;50.942;3.644;2023-07-29T05:15:06;6.93;;;1.95;;
52948;SDS011;38812;50.942;3.644;2023-07-29T05:17:32;4.78;;;1.73;;
52948;SDS011;38812;50.942;3.644;2023-07-29T05:19:57;3.58;;;1.75;;
52948;SDS011;38812;50.942;3.644;2023-07-29T05:22:23;5.70;;;1.88;;
52948;SDS011;38812;50.942;3.644;2023-07-29T05:24:48;7.13;;;2.05;;
52948;SDS011;38812;50.942;3.644;2023-07-29T05:27:13;5.38;;;1.73;;
52948;SDS011;38812;50.942;3.644;2023-07-29T05:29:39;10.13;;;1.95;;
52948;SDS011;38812;50.942;3.644;2023-07-29T05:32:04;6.80;;;2.20;;
52948;SDS011;38812;50.942;3.644;2023-07-29T05:34:30;1.80;;;1.40;;
52948;SDS011;38812;50.942;3.644;2023-07-29T05:36:55;2.42;;;1.60;;
52948;SDS011;38812;50.942;3.644;2023-07-29T05:39:21;5.10;;;2.35;;
52948;SDS011;38812;50.942;3.644;2023-07-29T05:41:46;2.28;;;1.48;;
52948;SDS011;38812;50.942;3.644;2023-07-29T05:44:12;2.75;;;1.65;;
52948;SDS011;38812;50.942;3.644;2023-07-29T05:46:37;6.05;;;2.05;;
52948;SDS011;38812;50.942;3.644;2023-07-29T05:49:03;5.38;;;1.85;;
52948;SDS011;38812;50.942;3.644;2023-07-29T05:51:28;1.50;;;1.40;;
52948;SDS011;38812;50.942;3.644;2023-07-29T05:53:53;1.83;;;1.45;;
52948;SDS011;38812;50.942;3.644;2023-07-29T05:56:19;2.13;;;1.55;;
52948;SDS011;38812;50.942;3.644;2023-07-29T05:58:44;4.53;;;1.52;;
52948;SDS011;38812;50.942;3.644;2023-07-29T06:01:09;2.90;;;1.65;;
52948;SDS011;38812;50.942;3.644;2023-07-29T06:03:35;6.43;;;1.42;;
52948;SDS011;38812;50.942;3.644;2023-07-29T06:06:00;1.70;;;1.60;;
52948;SDS011;38812;50.942;3.644;2023-07-29T06:08:26;4.50;;;1.70;;
52948;SDS011;38812;50.942;3.644;2023-07-29T06:10:53;2.25;;;1.20;;
52948;SDS011;38812;50.942;3.644;2023-07-29T06:13:19;4.75;;;1.52;;
52948;SDS011;38812;50.942;3.644;2023-07-29T06:15:44;2.22;;;1.30;;
52948;SDS011;38812;50.942;3.644;2023-07-29T06:18:09;2.75;;;1.38;;
52948;SDS011;38812;50.942;3.644;2023-07-29T06:20:35;2.50;;;1.42;;
52948;SDS011;38812;50.942;3.644;2023-07-29T06:23:00;3.63;;;1.58;;
52948;SDS011;38812;50.942;3.644;2023-07-29T06:25:27;7.93;;;1.55;;
52948;SDS011;38812;50.942;3.644;2023-07-29T06:27:52;2.45;;;1.40;;
52948;SDS011;38812;50.942;3.644;2023-07-29T06:30:18;1.67;;;1.45;;
52948;SDS011;38812;50.942;3.644;2023-07-29T06:32:43;2.45;;;1.67;;
52948;SDS011;38812;50.942;3.644;2023-07-29T06:35:08;2.25;;;1.27;;
52948;SDS011;38812;50.942;3.644;2023-07-29T06:37:34;2.85;;;1.60;;
52948;SDS011;38812;50.942;3.644;2023-07-29T06:39:59;1.58;;;1.15;;
52948;SDS011;38812;50.942;3.644;2023-07-29T06:42:25;4.82;;;1.20;;
52948;SDS011;38812;50.942;3.644;2023-07-29T06:44:50;1.75;;;1.42;;
52948;SDS011;38812;50.942;3.644;2023-07-29T06:47:15;2.67;;;1.50;;
52948;SDS011;38812;50.942;3.644;2023-07-29T06:49:41;3.00;;;1.17;;
52948;SDS011;38812;50.942;3.644;2023-07-29T06:52:06;2.00;;;1.50;;
52948;SDS011;38812;50.942;3.644;2023-07-29T06:54:32;4.28;;;1.40;;
52948;SDS011;38812;50.942;3.644;2023-07-29T06:56:57;2.40;;;1.30;;
52948;SDS011;38812;50.942;3.644;2023-07-29T06:59:23;1.40;;;0.90;;
52948;SDS011;38812;50.942;3.644;2023-07-29T07:01:49;2.75;;;1.35;;
52948;SDS011;38812;50.942;3.644;2023-07-29T07:04:15;1.73;;;1.13;;
52948;SDS011;38812;50.942;3.644;2023-07-29T07:06:40;2.58;;;1.52;;
52948;SDS011;38812;50.942;3.644;2023-07-29T07:09:06;1.98;;;1.25;;
52948;SDS011;38812;50.942;3.644;2023-07-29T07:11:31;3.10;;;1.67;;
52948;SDS011;38812;50.942;3.644;2023-07-29T07:13:57;3.08;;;1.15;;
52948;SDS011;38812;50.942;3.644;2023-07-29T07:16:22;2.78;;;1.45;;
52948;SDS011;38812;50.942;3.644;2023-07-29T07:18:48;2.75;;;1.40;;
52948;SDS011;38812;50.942;3.644;2023-07-29T07:21:13;7.32;;;1.63;;
52948;SDS011;38812;50.942;3.644;2023-07-29T07:23:39;5.00;;;1.60;;
52948;SDS011;38812;50.942;3.644;2023-07-29T07:26:04;3.28;;;1.50;;
52948;SDS011;38812;50.942;3.644;2023-07-29T07:28:30;4.10;;;1.60;;
52948;SDS011;38812;50.942;3.644;2023-07-29T07:30:55;2.63;;;1.33;;
52948;SDS011;38812;50.942;3.644;2023-07-29T07:33:21;3.97;;;1.38;;
52948;SDS011;38812;50.942;3.644;2023-07-29T07:35:47;4.63;;;1.30;;
52948;SDS011;38812;50.942;3.644;2023-07-29T07:38:12;4.15;;;1.40;;
52948;SDS011;38812;50.942;3.644;2023-07-29T07:40:37;2.33;;;1.20;;
52948;SDS011;38812;50.942;3.644;2023-07-29T07:43:03;3.40;;;1.25;;
52948;SDS011;38812;50.942;3.644;2023-07-29T07:45:28;2.58;;;1.17;;
52948;SDS011;38812;50.942;3.644;2023-07-29T07:47:53;1.00;;;0.88;;
52948;SDS011;38812;50.942;3.644;2023-07-29T07:50:19;1.40;;;1.08;;
52948;SDS011;38812;50.942;3.644;2023-07-29T07:52:45;1.42;;;1.25;;
52948;SDS011;38812;50.942;3.644;2023-07-29T07:55:10;2.65;;;1.13;;
52948;SDS011;38812;50.942;3.644;2023-07-29T07:57:36;2.50;;;1.15;;
52948;SDS011;38812;50.942;3.644;2023-07-29T08:00:02;1.65;;;1.20;;
52948;SDS011;38812;50.942;3.644;2023-07-29T08:02:29;4.20;;;1.13;;
52948;SDS011;38812;50.942;3.644;2023-07-29T08:04:54;3.72;;;1.55;;
52948;SDS011;38812;50.942;3.644;2023-07-29T08:07:20;2.08;;;1.30;;
52948;SDS011;38812;50.942;3.644;2023-07-29T08:09:45;5.72;;;1.30;;
52948;SDS011;38812;50.942;3.644;2023-07-29T08:12:10;3.85;;;1.48;;
52948;SDS011;38812;50.942;3.644;2023-07-29T08:14:36;1.38;;;1.27;;
52948;SDS011;38812;50.942;3.644;2023-07-29T08:17:01;1.83;;;1.40;;
52948;SDS011;38812;50.942;3.644;2023-07-29T08:19:27;2.92;;;1.60;;
52948;SDS011;38812;50.942;3.644;2023-07-29T08:21:52;3.45;;;1.38;;
52948;SDS011;38812;50.942;3.644;2023-07-29T08:24:18;1.60;;;1.50;;
52948;SDS011;38812;50.942;3.644;2023-07-29T08:26:43;2.70;;;1.73;;
52948;SDS011;38812;50.942;3.644;2023-07-29T08:29:08;2.30;;;1.50;;
52948;SDS011;38812;50.942;3.644;2023-07-29T08:31:34;2.55;;;1.60;;
52948;SDS011;38812;50.942;3.644;2023-07-29T08:33:59;1.33;;;1.23;;
52948;SDS011;38812;50.942;3.644;2023-07-29T08:36:25;3.72;;;1.50;;
52948;SDS011;38812;50.942;3.644;2023-07-29T08:38:51;2.20;;;1.45;;
52948;SDS011;38812;50.942;3.644;2023-07-29T08:41:19;1.88;;;1.33;;
52948;SDS011;38812;50.942;3.644;2023-07-29T08:46:24;2.00;;;1.40;;
52948;SDS011;38812;50.942;3.644;2023-07-29T08:48:51;2.33;;;1.23;;
52948;SDS011;38812;50.942;3.644;2023-07-29T08:51:16;7.13;;;1.65;;
52948;SDS011;38812;50.942;3.644;2023-07-29T08:53:42;2.47;;;1.20;;
52948;SDS011;38812;50.942;3.644;2023-07-29T08:56:08;1.33;;;1.17;;
52948;SDS011;38812;50.942;3.644;2023-07-29T08:58:34;2.00;;;1.30;;
52948;SDS011;38812;50.942;3.644;2023-07-29T09:01:00;2.20;;;1.30;;
52948;SDS011;38812;50.942;3.644;2023-07-29T09:03:26;4.25;;;1.25;;
52948;SDS011;38812;50.942;3.644;2023-07-29T09:05:51;2.22;;;1.30;;
52948;SDS011;38812;50.942;3.644;2023-07-29T09:08:17;1.55;;;1.20;;
52948;SDS011;38812;50.942;3.644;2023-07-29T09:10:44;5.97;;;1.52;;
52948;SDS011;38812;50.942;3.644;2023-07-29T09:13:09;7.50;;;1.33;;
52948;SDS011;38812;50.942;3.644;2023-07-29T09:15:35;2.47;;;1.60;;
52948;SDS011;38812;50.942;3.644;2023-07-29T09:18:12;1.65;;;1.48;;
52948;SDS011;38812;50.942;3.644;2023-07-29T09:20:40;2.85;;;1.60;;
52948;SDS011;38812;50.942;3.644;2023-07-29T09:23:09;2.35;;;1.40;;
52948;SDS011;38812;50.942;3.644;2023-07-29T09:25:36;2.47;;;1.48;;
52948;SDS011;38812;50.942;3.644;2023-07-29T09:28:07;2.67;;;1.58;;
52948;SDS011;38812;50.942;3.644;2023-07-29T09:32:59;3.10;;;1.67;;
52948;SDS011;38812;50.942;3.644;2023-07-29T09:35:27;3.42;;;1.40;;
52948;SDS011;38812;50.942;3.644;2023-07-29T09:37:53;5.35;;;1.70;;
52948;SDS011;38812;50.942;3.644;2023-07-29T09:40:19;2.47;;;1.63;;
52948;SDS011;38812;50.942;3.644;2023-07-29T09:42:51;1.60;;;1.38;;
52948;SDS011;38812;50.942;3.644;2023-07-29T09:45:21;2.78;;;1.60;;
52948;SDS011;38812;50.942;3.644;2023-07-29T09:47:51;2.25;;;1.73;;
52948;SDS011;38812;50.942;3.644;2023-07-29T09:50:17;2.28;;;1.35;;
52948;SDS011;38812;50.942;3.644;2023-07-29T09:52:43;5.70;;;1.85;;
52948;SDS011;38812;50.942;3.644;2023-07-29T09:55:12;1.67;;;1.50;;
52948;SDS011;38812;50.942;3.644;2023-07-29T09:57:41;3.95;;;1.30;;
52948;SDS011;38812;50.942;3.644;2023-07-29T10:00:06;4.40;;;1.52;;
52948;SDS011;38812;50.942;3.644;2023-07-29T10:02:37;9.23;;;4.13;;
52948;SDS011;38812;50.942;3.644;2023-07-29T10:05:04;8.90;;;3.15;;
52948;SDS011;38812;50.942;3.644;2023-07-29T10:07:30;6.10;;;2.30;;
52948;SDS011;38812;50.942;3.644;2023-07-29T10:09:56;8.88;;;5.00;;
52948;SDS011;38812;50.942;3.644;2023-07-29T10:12:24;8.13;;;2.30;;
52948;SDS011;38812;50.942;3.644;2023-07-29T10:14:50;2.40;;;1.70;;
52948;SDS011;38812;50.942;3.644;2023-07-29T10:17:15;5.32;;;2.05;;
52948;SDS011;38812;50.942;3.644;2023-07-29T10:19:41;8.13;;;2.80;;
52948;SDS011;38812;50.942;3.644;2023-07-29T10:22:09;10.18;;;2.25;;
52948;SDS011;38812;50.942;3.644;2023-07-29T10:24:38;6.10;;;2.45;;
52948;SDS011;38812;50.942;3.644;2023-07-29T10:27:07;6.13;;;1.85;;
52948;SDS011;38812;50.942;3.644;2023-07-29T10:29:38;6.15;;;1.30;;
52948;SDS011;38812;50.942;3.644;2023-07-29T10:32:04;1.17;;;1.08;;
52948;SDS011;38812;50.942;3.644;2023-07-29T10:34:31;1.15;;;1.05;;
52948;SDS011;38812;50.942;3.644;2023-07-29T10:36:59;3.40;;;1.13;;
52948;SDS011;38812;50.942;3.644;2023-07-29T10:39:25;1.75;;;1.30;;
52948;SDS011;38812;50.942;3.644;2023-07-29T10:41:54;1.70;;;1.35;;
52948;SDS011;38812;50.942;3.644;2023-07-29T10:47:14;1.75;;;1.65;;
52948;SDS011;38812;50.942;3.644;2023-07-29T10:49:41;1.70;;;1.23;;
52948;SDS011;38812;50.942;3.644;2023-07-29T10:52:07;2.55;;;1.48;;
52948;SDS011;38812;50.942;3.644;2023-07-29T10:54:42;11.70;;;2.15;;
52948;SDS011;38812;50.942;3.644;2023-07-29T10:57:12;7.88;;;2.20;;
52948;SDS011;38812;50.942;3.644;2023-07-29T10:59:38;4.47;;;2.00;;
52948;SDS011;38812;50.942;3.644;2023-07-29T11:02:11;7.20;;;1.67;;
52948;SDS011;38812;50.942;3.644;2023-07-29T11:04:47;1.67;;;1.13;;
52948;SDS011;38812;50.942;3.644;2023-07-29T11:17:35;4.35;;;1.58;;
52948;SDS011;38812;50.942;3.644;2023-07-29T11:20:02;4.38;;;1.80;;
52948;SDS011;38812;50.942;3.644;2023-07-29T11:22:28;3.92;;;2.03;;
52948;SDS011;38812;50.942;3.644;2023-07-29T11:24:54;3.88;;;2.00;;
52948;SDS011;38812;50.942;3.644;2023-07-29T11:27:20;3.92;;;2.58;;
52948;SDS011;38812;50.942;3.644;2023-07-29T11:29:46;3.60;;;1.70;;
52948;SDS011;38812;50.942;3.644;2023-07-29T11:32:12;1.85;;;1.63;;
52948;SDS011;38812;50.942;3.644;2023-07-29T11:34:37;4.60;;;2.65;;
52948;SDS011;38812;50.942;3.644;2023-07-29T11:37:05;5.63;;;1.80;;
52948;SDS011;38812;50.942;3.644;2023-07-29T11:39:32;8.23;;;1.88;;
52948;SDS011;38812;50.942;3.644;2023-07-29T11:41:58;3.03;;;1.45;;
52948;SDS011;38812;50.942;3.644;2023-07-29T11:44:24;2.88;;;1.65;;
52948;SDS011;38812;50.942;3.644;2023-07-29T11:46:50;5.30;;;1.40;;
52948;SDS011;38812;50.942;3.644;2023-07-29T11:49:15;4.55;;;1.73;;
52948;SDS011;38812;50.942;3.644;2023-07-29T11:51:41;2.10;;;1.20;;
52948;SDS011;38812;50.942;3.644;2023-07-29T11:54:06;1.38;;;1.13;;
52948;SDS011;38812;50.942;3.644;2023-07-29T11:56:33;4.05;;;1.38;;
52948;SDS011;38812;50.942;3.644;2023-07-29T11:58:59;2.45;;;1.20;;
52948;SDS011;38812;50.942;3.644;2023-07-29T12:01:28;3.15;;;1.50;;
52948;SDS011;38812;50.942;3.644;2023-07-29T12:03:54;2.55;;;1.48;;
52948;SDS011;38812;50.942;3.644;2023-07-29T12:06:21;2.53;;;1.60;;
52948;SDS011;38812;50.942;3.644;2023-07-29T12:08:47;4.35;;;1.98;;
52948;SDS011;38812;50.942;3.644;2023-07-29T12:11:13;2.55;;;1.50;;
52948;SDS011;38812;50.942;3.644;2023-07-29T12:13:41;4.43;;;1.80;;
52948;SDS011;38812;50.942;3.644;2023-07-29T12:16:06;2.35;;;1.10;;
52948;SDS011;38812;50.942;3.644;2023-07-29T12:18:32;3.63;;;1.58;;
52948;SDS011;38812;50.942;3.644;2023-07-29T12:21:02;1.95;;;1.58;;
52948;SDS011;38812;50.942;3.644;2023-07-29T12:23:28;9.35;;;1.77;;
52948;SDS011;38812;50.942;3.644;2023-07-29T12:25:58;1.85;;;1.50;;
52948;SDS011;38812;50.942;3.644;2023-07-29T12:28:25;3.33;;;1.60;;
52948;SDS011;38812;50.942;3.644;2023-07-29T12:30:54;2.00;;;1.30;;
52948;SDS011;38812;50.942;3.644;2023-07-29T12:33:29;2.90;;;1.70;;
52948;SDS011;38812;50.942;3.644;2023-07-29T12:35:59;2.22;;;1.20;;
52948;SDS011;38812;50.942;3.644;2023-07-29T12:38:27;3.08;;;1.55;;
52948;SDS011;38812;50.942;3.644;2023-07-29T12:40:53;1.35;;;1.10;;
52948;SDS011;38812;50.942;3.644;2023-07-29T12:43:19;2.33;;;1.20;;
52948;SDS011;38812;50.942;3.644;2023-07-29T12:45:45;2.13;;;1.42;;
52948;SDS011;38812;50.942;3.644;2023-07-29T12:48:11;3.00;;;1.65;;
52948;SDS011;38812;50.942;3.644;2023-07-29T12:50:37;4.50;;;1.58;;
52948;SDS011;38812;50.942;3.644;2023-07-29T12:53:05;1.20;;;1.10;;
52948;SDS011;38812;50.942;3.644;2023-07-29T12:55:31;2.50;;;1.10;;
52948;SDS011;38812;50.942;3.644;2023-07-29T12:57:56;1.42;;;1.27;;
52948;SDS011;38812;50.942;3.644;2023-07-29T13:00:23;1.45;;;1.10;;
52948;SDS011;38812;50.942;3.644;2023-07-29T13:02:48;1.30;;;0.90;;
52948;SDS011;38812;50.942;3.644;2023-07-29T13:05:14;2.83;;;0.93;;
52948;SDS011;38812;50.942;3.644;2023-07-29T13:07:39;1.35;;;1.25;;
52948;SDS011;38812;50.942;3.644;2023-07-29T13:10:05;1.17;;;0.80;;
52948;SDS011;38812;50.942;3.644;2023-07-29T13:12:31;0.90;;;0.80;;
52948;SDS011;38812;50.942;3.644;2023-07-29T13:14:57;0.90;;;0.60;;
52948;SDS011;38812;50.942;3.644;2023-07-29T13:17:22;1.20;;;0.70;;
52948;SDS011;38812;50.942;3.644;2023-07-29T13:19:48;2.22;;;0.80;;
52948;SDS011;38812;50.942;3.644;2023-07-29T13:22:14;1.50;;;0.70;;
52948;SDS011;38812;50.942;3.644;2023-07-29T13:24:39;1.00;;;0.88;;
52948;SDS011;38812;50.942;3.644;2023-07-29T13:27:05;1.42;;;0.70;;
52948;SDS011;38812;50.942;3.644;2023-07-29T13:29:30;0.70;;;0.70;;
52948;SDS011;38812;50.942;3.644;2023-07-29T13:31:56;1.83;;;0.90;;
52948;SDS011;38812;50.942;3.644;2023-07-29T13:34:21;1.83;;;0.90;;
52948;SDS011;38812;50.942;3.644;2023-07-29T13:36:47;1.10;;;1.00;;
52948;SDS011;38812;50.942;3.644;2023-07-29T13:39:12;0.70;;;0.70;;
52948;SDS011;38812;50.942;3.644;2023-07-29T13:41:38;1.23;;;0.82;;
52948;SDS011;38812;50.942;3.644;2023-07-29T13:44:03;4.05;;;0.50;;
52948;SDS011;38812;50.942;3.644;2023-07-29T13:46:29;3.70;;;1.00;;
52948;SDS011;38812;50.942;3.644;2023-07-29T13:48:54;1.02;;;0.70;;
52948;SDS011;38812;50.942;3.644;2023-07-29T13:51:20;1.55;;;1.08;;
52948;SDS011;38812;50.942;3.644;2023-07-29T13:53:45;1.05;;;0.95;;
52948;SDS011;38812;50.942;3.644;2023-07-29T13:56:10;0.60;;;0.60;;
52948;SDS011;38812;50.942;3.644;2023-07-29T13:58:36;1.00;;;0.63;;
52948;SDS011;38812;50.942;3.644;2023-07-29T14:01:01;0.60;;;0.60;;
52948;SDS011;38812;50.942;3.644;2023-07-29T14:03:27;1.15;;;0.77;;
52948;SDS011;38812;50.942;3.644;2023-07-29T14:05:52;0.93;;;0.90;;
52948;SDS011;38812;50.942;3.644;2023-07-29T14:08:17;0.60;;;0.60;;
52948;SDS011;38812;50.942;3.644;2023-07-29T14:10:43;0.80;;;0.80;;
52948;SDS011;38812;50.942;3.644;2023-07-29T14:13:08;2.88;;;0.95;;
52948;SDS011;38812;50.942;3.644;2023-07-29T14:15:33;5.30;;;1.10;;
52948;SDS011;38812;50.942;3.644;2023-07-29T14:17:59;1.00;;;0.90;;
52948;SDS011;38812;50.942;3.644;2023-07-29T14:20:25;2.60;;;1.60;;
52948;SDS011;38812;50.942;3.644;2023-07-29T14:22:50;0.68;;;0.68;;
52948;SDS011;38812;50.942;3.644;2023-07-29T14:25:16;0.60;;;0.60;;
52948;SDS011;38812;50.942;3.644;2023-07-29T14:27:41;0.70;;;0.70;;
52948;SDS011;38812;50.942;3.644;2023-07-29T14:30:07;1.23;;;0.70;;
52948;SDS011;38812;50.942;3.644;2023-07-29T14:32:33;0.60;;;0.60;;
52948;SDS011;38812;50.942;3.644;2023-07-29T14:34:58;0.50;;;0.50;;
52948;SDS011;38812;50.942;3.644;2023-07-29T14:37:28;0.50;;;0.50;;
52948;SDS011;38812;50.942;3.644;2023-07-29T14:39:55;0.93;;;0.80;;
52948;SDS011;38812;50.942;3.644;2023-07-29T14:42:20;0.60;;;0.60;;
52948;SDS011;38812;50.942;3.644;2023-07-29T14:44:46;0.63;;;0.63;;
52948;SDS011;38812;50.942;3.644;2023-07-29T14:47:11;0.93;;;0.65;;
52948;SDS011;38812;50.942;3.644;2023-07-29T14:49:37;2.13;;;0.63;;
52948;SDS011;38812;50.942;3.644;2023-07-29T14:52:02;1.67;;;0.68;;
52948;SDS011;38812;50.942;3.644;2023-07-29T14:54:28;0.93;;;0.55;;
52948;SDS011;38812;50.942;3.644;2023-07-29T14:56:53;2.33;;;0.60;;
52948;SDS011;38812;50.942;3.644;2023-07-29T14:59:19;1.75;;;0.70;;
52948;SDS011;38812;50.942;3.644;2023-07-29T15:01:44;4.55;;;0.90;;
52948;SDS011;38812;50.942;3.644;2023-07-29T15:04:10;1.67;;;0.80;;
52948;SDS011;38812;50.942;3.644;2023-07-29T15:06:35;3.13;;;0.65;;
52948;SDS011;38812;50.942;3.644;2023-07-29T15:09:01;1.38;;;0.77;;